Time;durP1;ratioP1;P1;durP2;ratioP2;P2;SDS_P1;SDS_P2;PMS_P1;PMS_P2;Temp;Humidity;BMP_temperature;BMP_pressure;BME280_temperature;BME280_humidity;BME280_pressure;Samples;Min_cycle;Max_cycle;Signal;HPM_P1;HPM_P2
2023/09/19 00:01:27;;;;;;;13.80;3.13;;;;;;;16.60;100.00;100693.59;5185648;28;20105;-73
2023/09/19 00:03:59;;;;;;;12.43;3.23;;;;;;;16.56;100.00;100700.97;5170821;28;20117;-71
2023/09/19 00:06:31;;;;;;;11.17;3.50;;;;;;;16.48;100.00;100700.81;5170263;28;20098;-73
2023/09/19 00:09:03;;;;;;;11.33;3.33;;;;;;;16.44;100.00;100705.53;5170733;28;20101;-73
2023/09/19 00:11:34;;;;;;;12.80;3.67;;;;;;;16.45;100.00;100708.03;5184297;28;20023;-73
2023/09/19 00:14:08;;;;;;;9.17;2.63;;;;;;;16.45;100.00;100710.69;5170963;28;20085;-73
2023/09/19 00:16:41;;;;;;;11.02;3.55;;;;;;;16.39;100.00;100713.84;5170923;28;20030;-73
2023/09/19 00:19:13;;;;;;;11.73;3.13;;;;;;;16.37;100.00;100709.69;5171791;28;20118;-74
2023/09/19 00:21:45;;;;;;;15.40;4.10;;;;;;;16.29;100.00;100716.47;5170870;28;20031;-73
2023/09/19 00:24:18;;;;;;;15.30;3.93;;;;;;;16.29;100.00;100716.47;5170590;28;20033;-74
2023/09/19 00:26:49;;;;;;;9.47;2.50;;;;;;;16.25;100.00;100716.88;5168911;28;20046;-73
2023/09/19 00:29:21;;;;;;;14.40;3.40;;;;;;;16.28;100.00;100727.16;5185292;28;20023;-73
2023/09/19 00:31:52;;;;;;;11.07;3.40;;;;;;;16.27;100.00;100733.41;5170830;28;20035;-74
2023/09/19 00:34:25;;;;;;;16.43;3.03;;;;;;;16.26;100.00;100734.38;5184701;28;20089;-73
2023/09/19 00:36:56;;;;;;;15.03;3.57;;;;;;;16.24;100.00;100726.59;5173260;28;20479;-73
2023/09/19 00:39:27;;;;;;;15.07;2.90;;;;;;;16.21;100.00;100738.25;5183980;28;20453;-74
2023/09/19 00:42:04;;;;;;;17.87;4.80;;;;;;;16.18;100.00;100742.97;5168867;28;20061;-72
2023/09/19 00:44:37;;;;;;;14.67;2.90;;;;;;;16.12;100.00;100741.69;5185706;28;20027;-73
2023/09/19 00:47:09;;;;;;;9.97;3.03;;;;;;;16.08;100.00;100748.19;5174733;28;20019;-74
2023/09/19 00:49:40;;;;;;;14.47;3.60;;;;;;;16.11;100.00;100752.41;5173705;28;20022;-74
2023/09/19 00:52:12;;;;;;;13.80;4.07;;;;;;;16.05;100.00;100748.47;5173695;28;20075;-71
2023/09/19 00:54:43;;;;;;;10.00;3.10;;;;;;;16.03;100.00;100755.66;5187829;28;20035;-73
2023/09/19 00:57:15;;;;;;;17.63;3.53;;;;;;;16.06;100.00;100756.25;5174292;28;20029;-73
2023/09/19 00:59:49;;;;;;;12.80;3.00;;;;;;;16.01;100.00;100768.16;5175260;28;20027;-72
2023/09/19 01:02:21;;;;;;;11.88;3.10;;;;;;;16.05;100.00;100770.44;5174301;28;20062;-72
2023/09/19 01:04:53;;;;;;;10.87;2.90;;;;;;;16.00;100.00;100774.44;5174735;28;20071;-73
2023/09/19 01:07:24;;;;;;;12.07;3.23;;;;;;;15.97;100.00;100768.41;5174690;28;20058;-74
2023/09/19 01:09:59;;;;;;;15.30;3.90;;;;;;;16.04;100.00;100775.84;5188938;28;20052;-73
2023/09/19 01:12:55;;;;;;;12.07;3.37;;;;;;;16.06;100.00;100773.91;5225404;22;20061;-72
2023/09/19 01:15:49;;;;;;;14.13;3.10;;;;;;;15.93;100.00;100779.34;5232425;28;20040;-75
2023/09/19 01:18:40;;;;;;;13.50;3.67;;;;;;;16.10;100.00;100772.69;5221778;28;21024;-72
2023/09/19 01:21:26;;;;;;;15.53;3.57;;;;;;;16.00;100.00;100774.44;5231580;28;20306;-73
2023/09/19 01:24:36;;;;;;;11.97;3.57;;;;;;;16.07;100.00;100786.16;5234101;28;20022;-73
2023/09/19 01:27:38;;;;;;;10.23;2.40;;;;;;;16.02;100.00;100785.72;5219842;28;20034;-72
2023/09/19 01:30:10;;;;;;;15.40;3.73;;;;;;;15.88;100.00;100784.19;5227779;28;20403;-73
2023/09/19 01:32:43;;;;;;;15.50;3.87;;;;;;;15.78;100.00;100779.66;5222303;28;20030;-74
2023/09/19 01:35:14;;;;;;;13.60;3.50;;;;;;;15.82;100.00;100796.94;5228189;28;20380;-74
2023/09/19 01:37:45;;;;;;;15.63;3.80;;;;;;;15.80;100.00;100795.38;5222594;28;20025;-72
2023/09/19 01:40:21;;;;;;;16.43;3.13;;;;;;;15.80;100.00;100792.75;5231502;28;20079;-72
2023/09/19 01:43:07;;;;;;;12.63;3.53;;;;;;;15.90;100.00;100798.94;5231752;28;20482;-72
2023/09/19 01:46:04;;;;;;;13.43;3.63;;;;;;;15.94;100.00;100805.63;5230204;28;20466;-73
2023/09/19 01:48:47;;;;;;;14.47;3.43;;;;;;;15.84;100.00;100799.44;5231539;28;20071;-74
2023/09/19 01:51:24;;;;;;;11.03;3.00;;;;;;;15.79;100.00;100799.84;5231817;28;20099;-74
2023/09/19 01:54:02;;;;;;;13.83;3.37;;;;;;;15.79;100.00;100802.47;5232331;28;20491;-74
2023/09/19 01:56:57;;;;;;;8.70;2.97;;;;;;;15.93;100.00;100798.69;5228932;28;20029;-74
2023/09/19 01:59:35;;;;;;;14.75;3.88;;;;;;;15.79;100.00;100799.00;5218748;28;20139;-74
2023/09/19 02:02:08;;;;;;;15.63;3.77;;;;;;;15.71;100.00;100789.91;5232353;28;20025;-73
2023/09/19 02:04:40;;;;;;;9.63;2.60;;;;;;;15.71;100.00;100805.75;5229889;28;20037;-72
2023/09/19 02:07:11;;;;;;;18.37;4.13;;;;;;;15.65;100.00;100795.69;5228252;28;20380;-73
2023/09/19 02:09:43;;;;;;;11.80;3.17;;;;;;;15.62;100.00;100795.97;5230483;28;20022;-74
2023/09/19 02:12:15;;;;;;;14.03;3.53;;;;;;;15.69;100.00;100797.09;5231565;28;20355;-73
2023/09/19 02:14:46;;;;;;;13.83;3.20;;;;;;;15.62;100.00;100790.69;5232404;28;20024;-74
2023/09/19 02:17:18;;;;;;;13.50;3.97;;;;;;;15.57;100.00;100787.56;5220695;28;20437;-71
2023/09/19 02:19:49;;;;;;;12.30;3.63;;;;;;;15.65;100.00;100794.84;5229662;28;20476;-73
2023/09/19 02:22:24;;;;;;;12.27;2.87;;;;;;;15.69;100.00;100791.81;5232462;28;20136;-73
2023/09/19 02:24:58;;;;;;;13.37;3.30;;;;;;;15.60;100.00;100792.59;5229650;28;20025;-74
2023/09/19 02:27:30;;;;;;;13.63;3.15;;;;;;;15.53;100.00;100791.44;5231717;28;20430;-73
2023/09/19 02:30:02;;;;;;;13.30;3.57;;;;;;;15.55;100.00;100800.06;5232408;28;20022;-73
2023/09/19 02:32:38;;;;;;;9.50;3.43;;;;;;;15.49;100.00;100806.69;5220066;28;20033;-73
2023/09/19 02:35:10;;;;;;;8.23;3.10;;;;;;;15.44;100.00;100801.78;5228573;28;20045;-74
2023/09/19 02:37:42;;;;;;;11.60;2.90;;;;;;;15.52;100.00;100808.22;5232464;28;20021;-74
2023/09/19 02:40:18;;;;;;;11.63;3.43;;;;;;;15.44;100.00;100796.50;5216945;28;20055;-73
2023/09/19 02:42:53;;;;;;;12.53;3.00;;;;;;;15.51;100.00;100809.19;5220492;28;20038;-73
2023/09/19 02:45:25;;;;;;;12.17;3.03;;;;;;;15.37;100.00;100805.88;5229358;28;20028;-73
2023/09/19 02:47:57;;;;;;;12.23;3.23;;;;;;;15.34;100.00;100806.94;5231429;28;20388;-72
2023/09/19 02:50:28;;;;;;;15.53;3.93;;;;;;;15.24;100.00;100793.69;5230577;28;20109;-72
2023/09/19 02:53:00;;;;;;;11.73;3.30;;;;;;;15.36;100.00;100804.19;5230366;28;20073;-73
2023/09/19 02:55:31;;;;;;;11.80;3.30;;;;;;;15.33;100.00;100807.06;5231179;28;20472;-73
2023/09/19 02:58:05;;;;;;;10.97;2.83;;;;;;;15.29;100.00;100808.31;5230551;28;20033;-73
2023/09/19 03:00:36;;;;;;;13.60;3.47;;;;;;;15.27;100.00;100804.94;5228073;28;20029;-72
2023/09/19 03:03:08;;;;;;;14.60;3.50;;;;;;;15.27;100.00;100807.59;5230066;28;20081;-72
2023/09/19 03:05:39;;;;;;;9.70;2.50;;;;;;;15.27;100.00;100818.13;5231540;28;20033;-73
2023/09/19 03:08:11;;;;;;;12.23;2.97;;;;;;;15.24;100.00;100820.06;5231550;28;20475;-73
2023/09/19 03:10:45;;;;;;;11.17;2.43;;;;;;;15.17;100.00;100816.22;5210954;28;20044;-73
2023/09/19 03:13:17;;;;;;;12.88;3.13;;;;;;;15.22;100.00;100808.78;5230197;28;20618;-73
2023/09/19 03:15:50;;;;;;;11.67;2.80;;;;;;;15.26;100.00;100816.44;5231414;28;20109;-72
2023/09/19 03:18:23;;;;;;;13.40;2.63;;;;;;;15.11;100.00;100800.91;5230855;28;20156;-72
2023/09/19 03:20:55;;;;;;;10.83;2.70;;;;;;;15.17;100.00;100818.06;5230429;28;20396;-73
2023/09/19 03:23:28;;;;;;;14.30;3.53;;;;;;;15.13;100.00;100812.19;5221538;28;20037;-73
2023/09/19 03:25:59;;;;;;;11.87;3.13;;;;;;;15.09;100.00;100808.94;5223522;28;20144;-73
2023/09/19 03:28:33;;;;;;;10.67;3.20;;;;;;;15.24;100.00;100813.94;5218322;28;20041;-72
2023/09/19 03:31:06;;;;;;;10.00;3.70;;;;;;;15.08;100.00;100798.53;5224088;28;20032;-71
2023/09/19 03:33:37;;;;;;;21.83;4.03;;;;;;;15.14;100.00;100813.84;5230160;28;20441;-73
2023/09/19 03:36:08;;;;;;;10.57;2.40;;;;;;;15.15;100.00;100804.13;5230791;28;20037;-72
2023/09/19 03:38:40;;;;;;;10.73;2.47;;;;;;;15.14;100.00;100808.56;5230423;28;20100;-73
2023/09/19 03:41:14;;;;;;;9.10;2.80;;;;;;;15.11;100.00;100804.34;5229466;28;20105;-72
2023/09/19 03:43:45;;;;;;;19.50;3.83;;;;;;;15.11;100.00;100803.53;5217220;28;20317;-74
2023/09/19 03:46:16;;;;;;;13.77;2.70;;;;;;;15.20;100.00;100809.88;5225841;28;20033;-73
2023/09/19 03:48:48;;;;;;;10.43;2.60;;;;;;;15.17;100.00;100802.22;5230381;28;20496;-73
2023/09/19 03:51:19;;;;;;;15.30;3.93;;;;;;;15.12;100.00;100797.28;5229151;28;20228;-73
2023/09/19 03:53:51;;;;;;;12.40;2.70;;;;;;;15.09;100.00;100797.53;5226966;28;20041;-73
2023/09/19 03:56:22;;;;;;;13.27;3.57;;;;;;;15.14;100.00;100794.53;5207944;28;20083;-73
2023/09/19 03:58:53;;;;;;;12.43;3.53;;;;;;;15.10;100.00;100799.22;5226964;28;20033;-71
2023/09/19 04:01:25;;;;;;;13.20;2.80;;;;;;;15.06;100.00;100811.00;5224586;28;20022;-73
2023/09/19 04:03:57;;;;;;;9.67;2.50;;;;;;;14.92;100.00;100796.25;5225232;28;20022;-73
2023/09/19 04:06:28;;;;;;;11.37;3.57;;;;;;;15.05;100.00;100804.03;5229689;28;20056;-73
2023/09/19 04:08:59;;;;;;;9.80;2.17;;;;;;;15.11;100.00;100799.09;5230538;28;20995;-73
2023/09/19 04:11:31;;;;;;;16.07;4.47;;;;;;;15.11;100.00;100800.91;5226657;28;20018;-70
2023/09/19 04:14:03;;;;;;;15.07;2.93;;;;;;;15.04;100.00;100797.06;5229406;28;20049;-72
2023/09/19 04:16:35;;;;;;;11.17;2.60;;;;;;;15.06;100.00;100795.16;5230202;28;20037;-72
2023/09/19 04:19:06;;;;;;;13.83;3.07;;;;;;;15.06;100.00;100795.16;5229833;28;20009;-73
2023/09/19 04:21:37;;;;;;;10.87;2.60;;;;;;;15.06;100.00;100811.81;5229570;28;20036;-73
2023/09/19 04:24:09;;;;;;;13.03;2.77;;;;;;;15.07;100.00;100816.13;5228835;28;20052;-72
2023/09/19 04:26:42;;;;;;;14.13;3.57;;;;;;;15.07;100.00;100823.19;5230340;28;20836;-72
2023/09/19 04:29:14;;;;;;;14.07;3.70;;;;;;;15.07;100.00;100831.97;5229496;28;20014;-72
2023/09/19 04:31:45;;;;;;;13.33;3.40;;;;;;;15.06;100.00;100832.91;5229173;28;20029;-73
2023/09/19 04:34:17;;;;;;;11.23;2.87;;;;;;;15.03;100.00;100834.97;5229888;28;20039;-72
2023/09/19 04:36:48;;;;;;;13.90;4.30;;;;;;;15.08;100.00;100844.19;5229682;28;20447;-71
2023/09/19 04:39:20;;;;;;;12.67;3.23;;;;;;;15.08;100.00;100852.09;5228423;28;20045;-73
2023/09/19 04:41:52;;;;;;;9.80;2.60;;;;;;;15.08;100.00;100856.53;5228320;28;20437;-72
2023/09/19 04:44:24;;;;;;;15.17;4.13;;;;;;;15.07;100.00;100852.22;5229014;28;20021;-72
2023/09/19 04:46:55;;;;;;;14.50;3.30;;;;;;;15.12;100.00;100864.09;5228945;28;20022;-71
2023/09/19 04:49:27;;;;;;;12.70;3.90;;;;;;;15.06;100.00;100863.75;5231019;28;20112;-70
2023/09/19 04:51:58;;;;;;;13.00;3.20;;;;;;;15.09;100.00;100864.34;5230786;28;20037;-70
2023/09/19 04:54:29;;;;;;;9.20;2.77;;;;;;;15.15;100.00;100881.44;5229587;28;20049;-71
2023/09/19 04:57:01;;;;;;;16.00;3.87;;;;;;;15.17;100.00;100878.72;5231692;28;20033;-70
2023/09/19 04:59:32;;;;;;;14.87;3.17;;;;;;;15.15;100.00;100878.00;5229486;28;20033;-70
2023/09/19 05:02:04;;;;;;;14.10;4.03;;;;;;;15.14;100.00;100873.66;5217277;28;20041;-70
2023/09/19 05:04:36;;;;;;;14.10;3.47;;;;;;;15.15;100.00;100881.44;5224490;28;20033;-71
2023/09/19 05:07:07;;;;;;;18.07;3.67;;;;;;;15.13;100.00;100878.13;5228719;28;20049;-71
2023/09/19 05:09:38;;;;;;;15.07;3.93;;;;;;;15.10;100.00;100875.69;5227938;28;20050;-70
2023/09/19 05:12:10;;;;;;;10.90;3.50;;;;;;;15.15;100.00;100888.56;5222343;28;20500;-70
2023/09/19 05:14:41;;;;;;;9.47;2.43;;;;;;;15.11;100.00;100883.50;5236359;28;20507;-70
2023/09/19 05:17:13;;;;;;;9.80;2.83;;;;;;;15.13;100.00;100886.03;5228085;28;20048;-70
2023/09/19 05:19:45;;;;;;;15.40;3.87;;;;;;;15.13;100.00;100886.03;5229370;28;20452;-70
2023/09/19 05:22:18;;;;;;;11.93;3.90;;;;;;;15.16;100.00;100885.78;5224311;28;20407;-71
2023/09/19 05:24:51;;;;;;;14.33;3.37;;;;;;;15.12;100.00;100879.06;5214363;28;20036;-71
2023/09/19 05:27:22;;;;;;;15.20;3.23;;;;;;;15.18;100.00;100891.78;5228265;28;20044;-71
2023/09/19 05:29:55;;;;;;;11.03;2.83;;;;;;;15.20;100.00;100887.19;5228664;28;20030;-71
2023/09/19 05:32:27;;;;;;;12.43;3.50;;;;;;;15.22;100.00;100890.56;5230414;28;20059;-71
2023/09/19 05:34:58;;;;;;;15.27;4.23;;;;;;;15.14;100.00;100892.97;5223193;28;20497;-71
2023/09/19 05:37:29;;;;;;;11.93;2.67;;;;;;;15.19;100.00;100892.59;5232838;28;20279;-71
2023/09/19 05:40:01;;;;;;;15.50;2.83;;;;;;;15.17;100.00;100892.72;5230791;28;20021;-70
2023/09/19 05:42:33;;;;;;;11.93;3.57;;;;;;;15.12;100.00;100884.34;5231080;28;20033;-71
2023/09/19 05:45:06;;;;;;;8.90;3.40;;;;;;;15.16;100.00;100895.50;5232733;28;20029;-70
2023/09/19 05:47:40;;;;;;;10.63;3.20;;;;;;;15.15;100.00;100899.91;5231399;28;20483;-70
2023/09/19 05:50:12;;;;;;;9.80;3.03;;;;;;;15.22;100.00;100900.31;5218413;28;20460;-70
2023/09/19 05:52:44;;;;;;;10.93;3.20;;;;;;;15.16;100.00;100891.06;5232802;28;20059;-70
2023/09/19 05:55:15;;;;;;;11.23;2.57;;;;;;;15.19;100.00;100885.53;5231252;28;20401;-70
2023/09/19 05:57:51;;;;;;;13.77;4.43;;;;;;;15.26;100.00;100882.41;5231798;28;20144;-69
2023/09/19 06:00:24;;;;;;;11.67;3.40;;;;;;;15.17;100.00;100882.19;5228840;28;20069;-69
2023/09/19 06:02:57;;;;;;;10.80;3.03;;;;;;;15.14;100.00;100876.31;5209876;28;20044;-69
2023/09/19 06:05:30;;;;;;;12.93;3.00;;;;;;;15.14;100.00;100877.16;5229051;28;20034;-70
2023/09/19 06:08:07;;;;;;;13.50;3.60;;;;;;;15.20;100.00;100887.19;5213250;28;20444;-70
2023/09/19 06:10:38;;;;;;;11.90;3.43;;;;;;;15.21;100.00;100888.91;5211008;28;20034;-70
2023/09/19 06:13:10;;;;;;;13.00;3.37;;;;;;;15.19;100.00;100885.53;5223681;28;20050;-70
2023/09/19 06:15:41;;;;;;;12.53;3.20;;;;;;;15.22;100.00;100885.28;5234327;28;20427;-69
2023/09/19 06:18:19;;;;;;;16.77;3.67;;;;;;;15.28;100.00;100888.41;5234616;28;20022;-69
2023/09/19 06:20:51;;;;;;;13.00;3.60;;;;;;;15.29;100.00;100901.47;5233929;28;20248;-69
2023/09/19 06:23:24;;;;;;;13.47;3.03;;;;;;;15.22;100.00;100890.56;5234150;28;20022;-70
2023/09/19 06:25:55;;;;;;;11.80;2.93;;;;;;;15.29;100.00;100911.19;5233983;28;20030;-69
2023/09/19 06:28:28;;;;;;;11.63;3.33;;;;;;;15.26;100.00;100895.59;5233877;28;20211;-69
2023/09/19 06:30:59;;;;;;;20.20;4.50;;;;;;;15.34;100.00;100909.84;5233800;28;20500;-69
2023/09/19 06:33:31;;;;;;;12.67;3.30;;;;;;;15.35;100.00;100913.34;5231553;28;20272;-71
2023/09/19 06:36:03;;;;;;;10.60;3.73;;;;;;;15.36;100.00;100909.72;5231530;28;20025;-71
2023/09/19 06:38:36;;;;;;;12.97;3.90;;;;;;;15.36;100.00;100920.28;5232608;28;20030;-71
2023/09/19 06:41:08;;;;;;;11.53;3.83;;;;;;;15.34;100.00;100909.84;5231513;28;20298;-71
2023/09/19 06:43:39;;;;;;;10.33;2.93;;;;;;;15.45;100.00;100922.22;5232274;28;20029;-70
2023/09/19 06:46:12;;;;;;;18.17;3.63;;;;;;;15.47;100.00;100919.44;5231753;28;20034;-71
2023/09/19 06:48:44;;;;;;;13.53;3.40;;;;;;;15.49;100.00;100920.16;5232825;28;20387;-70
2023/09/19 06:51:16;;;;;;;16.70;4.77;;;;;;;15.51;100.00;100923.53;5232080;28;20029;-71
2023/09/19 06:53:47;;;;;;;13.63;3.97;;;;;;;15.53;100.00;100928.69;5231137;28;20036;-71
2023/09/19 06:56:19;;;;;;;15.07;3.83;;;;;;;15.53;100.00;100924.25;5232153;28;20027;-71
2023/09/19 06:58:50;;;;;;;15.63;3.67;;;;;;;15.56;100.00;100917.88;5230904;28;20503;-71
2023/09/19 07:01:21;;;;;;;12.17;4.27;;;;;;;15.63;100.00;100924.34;5211165;28;20091;-69
2023/09/19 07:03:53;;;;;;;16.43;3.30;;;;;;;15.75;100.00;100926.94;5209874;28;20022;-69
2023/09/19 07:06:24;;;;;;;12.30;3.13;;;;;;;15.78;100.00;100916.97;5211964;28;20037;-70
2023/09/19 07:08:55;;;;;;;15.03;4.53;;;;;;;15.75;100.00;100927.78;5230965;28;20538;-69
2023/09/19 07:11:27;;;;;;;15.87;4.50;;;;;;;15.74;100.00;100920.84;5231630;28;20033;-70
2023/09/19 07:13:58;;;;;;;10.90;3.10;;;;;;;15.82;100.00;100914.94;5233735;28;20099;-69
2023/09/19 07:16:29;;;;;;;10.60;3.47;;;;;;;15.86;100.00;100937.50;5233187;28;20025;-68
2023/09/19 07:19:01;;;;;;;11.50;3.23;;;;;;;15.91;100.00;100945.88;5232528;28;20083;-69
2023/09/19 07:21:35;;;;;;;17.93;3.57;;;;;;;15.97;100.00;100936.59;5233555;28;20029;-68
2023/09/19 07:24:08;;;;;;;16.55;3.13;;;;;;;15.97;100.00;100926.88;5231259;28;20029;-69
2023/09/19 07:26:39;;;;;;;17.03;3.33;;;;;;;16.04;100.00;100937.00;5233604;28;20571;-68
2023/09/19 07:29:11;;;;;;;10.33;3.13;;;;;;;16.05;100.00;100936.00;5233788;28;20042;-69
2023/09/19 07:31:44;;;;;;;17.80;3.93;;;;;;;16.19;100.00;100927.78;5228560;28;20041;-68
2023/09/19 07:34:15;;;;;;;15.67;4.37;;;;;;;16.25;100.00;100928.25;5219905;28;20033;-68
2023/09/19 07:36:47;;;;;;;15.27;3.33;;;;;;;16.35;100.00;100929.16;5233641;28;20025;-69
2023/09/19 07:39:18;;;;;;;13.63;2.93;;;;;;;16.40;100.00;100926.97;5232638;28;20029;-69
2023/09/19 07:41:49;;;;;;;17.83;3.87;;;;;;;16.46;100.00;100920.31;5233568;28;20604;-70
2023/09/19 07:44:21;;;;;;;12.57;2.87;;;;;;;16.61;100.00;100933.22;5239048;28;20528;-70
2023/09/19 07:46:53;;;;;;;15.43;3.80;;;;;;;16.71;100.00;100941.19;5213073;28;20041;-70
2023/09/19 07:49:24;;;;;;;17.10;3.40;;;;;;;16.83;100.00;100934.03;5232001;28;20117;-71
2023/09/19 07:51:57;;;;;;;10.27;2.93;;;;;;;16.95;100.00;100935.63;5232938;28;20123;-72
2023/09/19 07:54:30;;;;;;;13.67;3.20;;;;;;;17.10;100.00;100935.31;5231649;28;20388;-70
2023/09/19 07:57:02;;;;;;;16.10;3.73;;;;;;;17.19;100.00;100938.97;5232859;28;20038;-70
2023/09/19 07:59:33;;;;;;;20.03;3.47;;;;;;;17.36;100.00;100926.91;5233444;28;20027;-69
2023/09/19 08:02:05;;;;;;;11.03;3.87;;;;;;;17.76;100.00;100938.41;5232695;28;20112;-68
2023/09/19 08:04:36;;;;;;;13.00;3.23;;;;;;;17.97;100.00;100940.97;5232724;28;20034;-71
2023/09/19 08:07:08;;;;;;;12.93;3.10;;;;;;;18.11;100.00;100939.72;5232534;28;20036;-71
2023/09/19 08:09:40;;;;;;;16.43;3.77;;;;;;;18.31;100.00;100937.06;5232568;28;20033;-72
2023/09/19 08:12:11;;;;;;;13.50;2.77;;;;;;;18.51;100.00;100945.00;5231900;28;20447;-72
2023/09/19 08:14:43;;;;;;;17.97;4.17;;;;;;;18.50;100.00;100946.00;5232647;28;20480;-72
2023/09/19 08:17:14;;;;;;;12.80;4.10;;;;;;;18.58;100.00;100943.47;5232555;28;20067;-72
2023/09/19 08:19:46;;;;;;;13.30;3.63;;;;;;;19.05;100.00;100932.97;5229228;28;20037;-72
2023/09/19 08:22:17;;;;;;;14.40;3.23;;;;;;;19.46;100.00;100943.31;5223387;28;20033;-71
2023/09/19 08:24:49;;;;;;;11.30;3.10;;;;;;;19.64;100.00;100945.13;5229267;28;20037;-72
2023/09/19 08:27:20;;;;;;;11.03;3.50;;;;;;;19.98;100.00;100939.19;5232551;28;20125;-72
2023/09/19 08:29:51;;;;;;;11.10;2.93;;;;;;;20.31;100.00;100936.84;5231054;28;20033;-72
2023/09/19 08:32:24;;;;;;;12.93;3.30;;;;;;;20.45;100.00;100933.75;5230125;28;20037;-71
2023/09/19 08:34:55;;;;;;;11.83;3.27;;;;;;;21.09;100.00;100945.97;5220337;28;20037;-71
2023/09/19 08:37:26;;;;;;;15.57;3.63;;;;;;;21.27;100.00;100946.72;5223522;28;20082;-71
2023/09/19 08:39:58;;;;;;;14.23;3.20;;;;;;;21.22;100.00;100954.38;5220848;28;20419;-71
2023/09/19 08:42:29;;;;;;;17.20;4.00;;;;;;;21.17;100.00;100940.69;5221960;28;20100;-72
2023/09/19 08:45:01;;;;;;;12.07;2.95;;;;;;;21.30;100.00;100947.38;5237782;28;20052;-72
2023/09/19 08:47:45;;;;;;;15.20;3.55;;;;;;;21.34;100.00;100948.75;5221175;28;20052;-72
2023/09/19 08:50:23;;;;;;;13.38;4.07;;;;;;;21.43;97.43;100950.44;5222044;28;20025;-72
2023/09/19 08:53:01;;;;;;;16.33;3.90;;;;;;;21.47;99.26;100942.97;5222844;28;20040;-71
2023/09/19 08:55:33;;;;;;;9.98;2.72;;;;;;;21.20;100.00;100932.38;5219639;28;20037;-73
2023/09/19 08:58:08;;;;;;;13.57;4.05;;;;;;;21.85;94.96;100946.06;5223434;28;20037;-73
2023/09/19 09:00:42;;;;;;;12.60;3.28;;;;;;;21.79;92.72;100956.50;5222270;28;20423;-72
2023/09/19 09:03:14;;;;;;;14.55;3.72;;;;;;;22.66;86.46;100944.56;5223308;28;20021;-72
2023/09/19 09:05:47;;;;;;;15.05;4.00;;;;;;;22.78;79.11;100944.22;5220993;28;20025;-72
2023/09/19 09:08:21;;;;;;;10.80;3.50;;;;;;;22.98;75.44;100943.81;5223649;28;20037;-72
2023/09/19 09:10:53;;;;;;;14.80;3.42;;;;;;;23.23;74.09;100944.56;5226088;28;20387;-72
2023/09/19 09:13:26;;;;;;;10.15;3.45;;;;;;;23.71;68.47;100945.47;5225736;28;20080;-72
2023/09/19 09:15:59;;;;;;;14.00;4.47;;;;;;;24.26;61.84;100942.78;5225516;28;20743;-72
2023/09/19 09:18:30;;;;;;;10.90;2.90;;;;;;;24.20;63.45;100940.81;5224775;28;20292;-73
2023/09/19 09:21:03;;;;;;;12.35;4.00;;;;;;;24.44;59.01;100952.28;5225211;28;20079;-73
2023/09/19 09:23:35;;;;;;;8.80;2.95;;;;;;;24.96;56.12;100952.47;5224879;28;20048;-73
2023/09/19 09:26:07;;;;;;;9.82;2.75;;;;;;;25.74;59.24;100949.25;5227122;28;20029;-73
2023/09/19 09:28:45;;;;;;;11.25;3.47;;;;;;;25.54;57.94;100956.22;5229782;28;20022;-73
2023/09/19 09:31:24;;;;;;;12.55;3.42;;;;;;;26.19;56.87;100950.91;5228182;28;20083;-74
2023/09/19 09:33:57;;;;;;;10.25;3.05;;;;;;;26.61;53.98;100950.19;5233895;28;20656;-74
2023/09/19 09:36:36;;;;;;;13.23;3.88;;;;;;;26.62;51.26;100941.09;5234384;28;20033;-73
2023/09/19 09:39:24;;;;;;;12.05;3.00;;;;;;;26.25;50.34;100937.75;5230609;28;20116;-73
2023/09/19 09:41:59;;;;;;;9.48;3.00;;;;;;;26.68;50.70;100932.28;5234354;28;20395;-73
2023/09/19 09:44:32;;;;;;;15.73;3.95;;;;;;;26.42;48.91;100936.47;5234780;28;20440;-73
2023/09/19 09:50:06;;;;;;;8.73;4.45;;;;;;;26.46;45.74;100934.22;5232154;28;20042;-73
2023/09/19 09:52:45;;;;;;;16.15;3.58;;;;;;;26.30;48.96;100924.56;5233571;28;20034;-73
2023/09/19 09:55:18;;;;;;;11.95;3.53;;;;;;;26.24;46.46;100930.69;5231951;28;20025;-73
2023/09/19 09:58:17;;;;;;;9.27;2.55;;;;;;;27.17;46.40;100920.75;5224580;28;20041;-73
2023/09/19 10:00:57;;;;;;;13.98;3.03;;;;;;;27.43;45.33;100927.22;5221019;28;20068;-73
2023/09/19 10:03:34;;;;;;;12.25;3.17;;;;;;;26.65;45.12;100934.53;5221536;28;20088;-73
2023/09/19 10:06:30;;;;;;;9.10;2.83;;;;;;;27.00;46.00;100928.28;5234702;28;20032;-73
2023/09/19 10:11:46;;;;;;;11.32;2.75;;;;;;;26.87;44.38;100937.94;5229974;28;20060;-73
2023/09/19 10:14:23;;;;;;;8.23;3.08;;;;;;;26.01;47.45;100935.28;5234209;28;20042;-73
2023/09/19 10:17:01;;;;;;;14.07;3.58;;;;;;;26.52;46.68;100935.25;5232903;28;20048;-73
2023/09/19 10:20:05;;;;;;;11.35;3.15;;;;;;;26.77;47.54;100938.31;5223539;28;20045;-74
2023/09/19 10:22:37;;;;;;;9.50;2.78;;;;;;;26.58;44.86;100935.31;5233745;28;20029;-75
2023/09/19 10:25:09;;;;;;;10.27;2.55;;;;;;;26.97;44.02;100916.06;5227006;28;20029;-73
2023/09/19 10:27:43;;;;;;;12.68;3.80;;;;;;;26.57;44.74;100917.53;5248308;28;20040;-75
2023/09/19 10:30:15;;;;;;;12.65;2.95;;;;;;;26.87;44.25;100929.06;5233438;28;20737;-74
2023/09/19 10:32:57;;;;;;;9.10;3.03;;;;;;;27.22;45.42;100920.97;5231728;28;20029;-74
2023/09/19 10:35:29;;;;;;;9.57;3.10;;;;;;;26.65;44.45;100913.84;5230832;28;20488;-73
2023/09/19 10:38:01;;;;;;;11.38;2.95;;;;;;;26.86;42.49;100933.63;5234188;28;20021;-73
2023/09/19 10:40:35;;;;;;;8.50;2.67;;;;;;;27.07;43.76;100921.13;5233077;28;20104;-74
2023/09/19 10:43:11;;;;;;;11.10;3.55;;;;;;;26.58;44.87;100921.06;5228228;28;20053;-72
2023/09/19 10:45:44;;;;;;;8.18;2.72;;;;;;;26.66;43.48;100925.44;5218464;28;20084;-73
2023/09/19 10:48:19;;;;;;;10.57;3.13;;;;;;;26.40;44.69;100925.09;5233452;28;20388;-72
2023/09/19 10:50:59;;;;;;;10.05;2.95;;;;;;;25.77;47.21;100923.09;5239752;28;20091;-72
2023/09/19 10:53:43;;;;;;;10.57;3.05;;;;;;;26.16;46.21;100923.63;5234245;28;20074;-74
2023/09/19 10:56:27;;;;;;;10.55;3.35;;;;;;;25.90;45.84;100911.66;5245088;28;20033;-69
2023/09/19 10:59:26;;;;;;;9.02;2.42;;;;;;;25.71;46.69;100919.34;5233223;28;20034;-69
2023/09/19 11:01:57;;;;;;;10.23;2.50;;;;;;;25.53;47.41;100917.03;5227551;28;20079;-69
2023/09/19 11:04:32;;;;;;;9.68;2.67;;;;;;;25.59;48.17;100910.91;5233236;28;20061;-71
2023/09/19 11:07:15;;;;;;;11.25;2.90;;;;;;;25.07;47.94;100897.56;5234399;28;20109;-71
2023/09/19 11:10:01;;;;;;;6.65;2.67;;;;;;;25.66;50.51;100894.94;5229098;28;20416;-71
2023/09/19 11:12:35;;;;;;;7.13;2.58;;;;;;;25.09;49.02;100880.28;5230686;28;20491;-72
2023/09/19 11:15:08;;;;;;;10.75;2.78;;;;;;;24.68;49.63;100884.28;5237707;28;20083;-71
2023/09/19 11:17:44;;;;;;;15.00;3.40;;;;;;;25.08;47.53;100878.63;5234958;28;20037;-72
2023/09/19 11:20:24;;;;;;;11.55;2.55;;;;;;;25.12;48.41;100879.06;5231166;28;20369;-71
2023/09/19 11:23:17;;;;;;;9.63;2.95;;;;;;;25.42;47.83;100881.69;5233539;28;20025;-69
2023/09/19 11:25:49;;;;;;;10.90;2.72;;;;;;;25.05;45.75;100876.31;5234554;28;20032;-71
2023/09/19 11:28:25;;;;;;;7.93;2.38;;;;;;;25.04;45.95;100876.50;5237388;28;20044;-71
2023/09/19 11:30:58;;;;;;;8.32;2.70;;;;;;;24.91;46.58;100882.53;5242186;28;20041;-66
2023/09/19 11:33:33;;;;;;;9.55;2.65;;;;;;;24.90;47.66;100870.97;5223176;28;20843;-75
2023/09/19 11:36:15;;;;;;;7.22;1.95;;;;;;;25.03;47.70;100864.97;5236240;28;20112;-75
2023/09/19 11:38:49;;;;;;;8.10;2.58;;;;;;;24.52;49.96;100851.31;5232756;28;20025;-74
2023/09/19 11:41:21;;;;;;;8.20;2.47;;;;;;;24.77;46.53;100847.53;5223172;28;20095;-75
2023/09/19 11:44:00;;;;;;;8.50;2.25;;;;;;;24.89;46.91;100851.38;5229646;28;20515;-75
2023/09/19 11:46:33;;;;;;;7.32;1.83;;;;;;;24.75;47.26;100846.91;5228330;28;20021;-76
2023/09/19 11:49:13;;;;;;;5.28;1.85;;;;;;;24.83;46.44;100837.91;5215672;28;20024;-75